Sandhurst, United Kingdom
Current Conditions -  °F | °C
As of 7:50 PM on Saturday 22 Nov 2014 (Local Time) from EGLF Reporting Station
Drizzle Drizzle  
Wind Chill: 13°   Ceiling: 500
Heat Index: 13°   Visibility: 1.5mi
Dew Point: 13°   Wind: 3mph
Humidity: 100%   Direction: 150°SSE
Pressure: 29.94"   Gusts: NA
Location:  51.35°N, 0.78°W
Report Text: EGLF 221950Z 15003KT 2500 -DZBR OVC005 13/13 Q1014
Loading
Personal Weather Stations






























Interactive Weather Map New forecast layout! Learn more

10-Day Weather Forecast

Advertisements
Track Severe Weather on mobile